Mount Princeton, Colorado
Current Conditions -  °F | °C
As of 7:33 PM on Friday 28 Nov 2014 (Local Time) from K7BM Reporting Station
Clear Clear  
Wind Chill: 36°   Ceiling: Unl
Heat Index: 45°   Visibility: 10mi
Dew Point: -4°   Wind: 21mph
Humidity: 13%   Direction: 280°W
Pressure: 30.08"   Gusts: 44mph
Location:  38.7194°N, 106.276°W
Report Text: K7BM 290233Z AUTO 28018G38KT 250V340 10SM CLR 07/M20 A3008 RMK AO2
Loading
Personal Weather Stations






























Interactive Weather Map New forecast layout! Learn more

10-Day Weather Forecast

Advertisements
Track Severe Weather on mobile